• Join FlightAware (Why Join?)
  • Login
  • US Flag 
12:27PM EDT


 

Airport Tracker/Info


-or-


 

Live Flight TrackerFlight Track Log ✈ AAL180 ✈ 19-Jul-2013 ✈ KLAX - KJFK

Flight Track Log - Related Links

Times and Time Zones

All times are in EDT time to prevent confusion due to time zone crossing. See the AAL180 flight status page for this flight to view local times or setup timezone preferences in your user account.

Time Position Orientation Groundspeed Altitude Reporting Facility
EDT Latitude Longitude Course Direction KTS MPH feet Rate Location/Type
07:27PM 33.9317 -118.4453 54° Northeast 171 197 1,900  Level Los Angeles Center
07:28PM 33.9050 -118.5261 248° West 233 268 3,900 2,340 Climbing Los Angeles Center
07:29PM 34.1216 -118.0902 59° Northeast  Level FlightAware Approximate
07:29PM 33.8497 -118.5603 207° Southwest 255 293 6,800  Level Los Angeles Center
07:30PM 34.1862 -117.9610 59° Northeast  Level FlightAware Approximate
07:30PM 33.8381 -118.4822 100° East 263 303 9,500  Level Los Angeles Center
07:31PM 34.2546 -117.8348 51° Northeast  Level FlightAware Approximate
07:31PM 33.9075 -118.4478 22° Northeast 278 320 11,400  Level Los Angeles Center
07:32PM 34.3204 -117.7149 49° Northeast  Level FlightAware Approximate
07:32PM 33.9714 -118.3661 47° Northeast 343 395 12,600  Level Los Angeles Center
07:33PM 34.3887 -117.5911 54° Northeast  Level FlightAware Approximate
07:34PM 34.0292 -118.2647 55° Northeast 363 418 14,900  Level Los Angeles Center
07:35PM 34.0900 -118.1583 55° Northeast 379 436 17,400 1,980 Climbing Los Angeles Center
07:36PM 34.1508 -118.0483 56° Northeast 391 450 19,000 1,980 Climbing Los Angeles Center
07:37PM 34.2289 -117.9100 56° Northeast 413 475 21,500 1,980 Climbing Los Angeles Center
07:38PM 34.2958 -117.7925 55° Northeast 421 484 23,200 1,560 Climbing Los Angeles Center
07:39PM 34.3650 -117.6686 56° Northeast 440 506 24,800 1,500 Climbing Los Angeles Center
07:40PM 34.4411 -117.5383 55° Northeast 447 514 26,400 1,380 Climbing Los Angeles Center
07:41PM 34.5258 -117.4225 48° Northeast 459 528 27,700 1,200 Climbing Los Angeles Center
07:42PM 34.6097 -117.3008 50° Northeast 469 540 29,000 1,260 Climbing Los Angeles Center
07:43PM 34.6789 -117.2050 49° Northeast 474 545 30,300 1,020 Climbing Los Angeles Center
07:44PM 34.7981 -117.0336 50° Northeast 479 551 31,200 1,260 Climbing Los Angeles Center
07:45PM 34.8819 -116.9136 50° Northeast 470 541 33,000 1,500 Climbing Los Angeles Center
07:46PM 34.9633 -116.7925 51° Northeast 464 534 34,400 960 Climbing Los Angeles Center
07:47PM 35.0469 -116.6692 50° Northeast 471 542 35,000 240 Climbing Los Angeles Center
07:48PM 35.1308 -116.5472 50° Northeast 472 543 35,000  Level Los Angeles Center
07:49PM 35.2314 -116.4031 49° Northeast 466 536 35,000  Level Los Angeles Center
07:50PM 35.3142 -116.2819 50° Northeast 464 534 35,000  Level Los Angeles Center
07:51PM 35.3975 -116.1611 50° Northeast 465 535 35,000  Level Los Angeles Center
07:52PM 35.4806 -116.0419 49° Northeast 462 532 35,000  Level Los Angeles Center
07:53PM 35.5597 -115.9250 50° Northeast 449 517 35,000  Level Los Angeles Center
07:54PM 35.6542 -115.7878 50° Northeast 453 521 35,000  Level Los Angeles Center
07:55PM 35.7339 -115.6694 50° Northeast 451 519 35,000  Level Los Angeles Center
07:56PM 35.8150 -115.5503 50° Northeast 453 521 35,000  Level Los Angeles Center
07:57PM 35.8961 -115.4300 50° Northeast 458 527 35,000  Level Los Angeles Center
07:58PM 35.9925 -115.2869 50° Northeast 456 525 35,000  Level Los Angeles Center
07:59PM 36.0717 -115.1672 51° Northeast 453 521 35,000  Level Los Angeles Center
08:00PM 36.1589 -115.0547 46° Northeast 456 525 35,000  Level Los Angeles Center
08:01PM 36.2478 -114.9444 45° Northeast 456 525 35,000  Level Los Angeles Center
08:02PM 36.3364 -114.8319 46° Northeast 457 526 35,000  Level Los Angeles Center
08:04PM 36.4406 -114.6956 46° Northeast 457 526 35,000  Level Los Angeles Center
08:05PM 36.5269 -114.5817 47° Northeast 454 522 35,000  Level Los Angeles Center
08:06PM 36.6153 -114.4675 46° Northeast 457 526 35,000  Level Los Angeles Center
08:07PM 36.7025 -114.3522 47° Northeast 457 526 35,000  Level Los Angeles Center
08:08PM 36.7822 -114.2300 51° Northeast 455 524 35,000  Level Los Angeles Center
08:09PM 36.8461 -114.0964 59° Northeast 450 518 35,000  Level Los Angeles Center
08:10PM 36.9250 -113.9319 59° Northeast 458 527 35,000  Level Los Angeles Center
08:11PM 36.9869 -113.8050 59° Northeast 455 524 35,000  Level Los Angeles Center
08:12PM 37.0536 -113.6672 59° Northeast 460 529 35,000  Level Los Angeles Center
08:13PM 37.1183 -113.5300 59° Northeast 459 528 35,000  Level Los Angeles Center
08:14PM 37.1964 -113.3633 60° Northeast 462 532 35,000  Level Los Angeles Center
08:15PM 37.2728 -113.2353 53° Northeast 460 529 35,000  Level Los Angeles Center
08:16PM 37.3633 -113.1186 46° Northeast 464 534 35,000  Level Los Angeles Center
08:17PM 37.4617 -113.0111 41° Northeast 468 539 35,000  Level Los Angeles Center
08:18PM 37.5792 -112.9125 34° Northeast 469 540 35,000 540 Level Los Angeles Center
08:19PM 37.6714 -112.8494 28° Northeast 460 529 36,100 1,020 Climbing Salt Lake Center
08:20PM 37.7850 -112.7711 29° Northeast 466 536 37,000 420 Climbing Salt Lake Center
08:21PM 37.8964 -112.6844 32° Northeast 468 539 37,000  Level Salt Lake Center
08:22PM 37.9764 -112.5125 59° Northeast 468 539 37,000  Level Salt Lake Center
08:23PM 38.0339 -112.3625 64° Northeast 470 541 37,000  Level Salt Lake Center
08:24PM 38.0911 -112.2136 64° Northeast 470 541 37,000  Level Salt Lake Center
08:25PM 38.1489 -112.0636 64° Northeast 473 544 37,000  Level Salt Lake Center
08:26PM 38.2072 -111.9153 63° Northeast 470 541 37,000  Level Salt Lake Center
08:27PM 38.2639 -111.7669 64° Northeast 467 537 37,000  Level Salt Lake Center
08:28PM 38.3206 -111.6194 64° Northeast 465 535 37,000  Level Salt Lake Center
08:29PM 38.3867 -111.4417 65° Northeast 464 534 37,000  Level Salt Lake Center
08:30PM 38.4425 -111.2914 65° Northeast 468 539 37,000  Level Salt Lake Center
08:31PM 38.4992 -111.1422 64° Northeast 468 539 37,000  Level Salt Lake Center
08:32PM 38.5539 -110.9900 65° Northeast 472 543 37,000  Level Salt Lake Center
08:33PM 38.6122 -110.8294 65° Northeast 473 544 37,000  Level Salt Lake Center
08:34PM 38.6658 -110.6833 65° Northeast 475 547 37,000  Level Salt Lake Center
08:35PM 38.7267 -110.5133 65° Northeast 472 543 37,000  Level Salt Lake Center
08:36PM 38.7792 -110.3661 65° Northeast 474 545 37,000  Level Salt Lake Center
08:37PM 38.8400 -110.1958 65° Northeast 471 542 37,000  Level Salt Lake Center
08:38PM 38.8911 -110.0500 66° East 471 542 37,000  Level Salt Lake Center
08:39PM 38.9517 -109.8781 66° East 473 544 37,000  Level Salt Lake Center
08:41PM 39.0031 -109.7308 66° East 473 544 37,000  Level Salt Lake Center
08:42PM 39.0633 -109.5578 66° East 476 548 37,000  Level Salt Lake Center
08:43PM 39.1147 -109.4100 66° East 474 545 37,000  Level Salt Lake Center
08:44PM 39.1733 -109.2364 66° East 475 547 37,000  Level Salt Lake Center
08:45PM 39.2247 -109.0872 66° East 476 548 37,000 300 Level Salt Lake Center
08:46PM 39.2836 -108.9128 66° East 479 551 37,700 780 Climbing Salt Lake Center
08:47PM 39.3322 -108.7633 67° East 475 547 38,700 600 Climbing Salt Lake Center
08:48PM 39.3911 -108.5889 66° East 480 552 39,000 180 Climbing Salt Lake Center
08:48PM 39.4078 -108.5381 67° East 482 555 39,000  Level Denver Center
08:50PM 39.4667 -108.3614 67° East 485 558 39,000  Level Denver Center
08:51PM 39.5333 -108.1628 66° East 465 535 39,000  Level Denver Center
08:52PM 39.5911 -107.9867 67° East 476 548 39,000  Level Denver Center
08:53PM 39.6408 -107.8358 67° East 478 550 39,000  Level Denver Center
08:54PM 39.6981 -107.6606 67° East 474 545 39,000  Level Denver Center
08:55PM 39.7481 -107.5086 67° East 477 549 39,000  Level Denver Center
08:56PM 39.8136 -107.3056 67° East 478 550 39,000  Level Denver Center
08:57PM 39.8658 -107.1525 66° East 472 543 39,000  Level Denver Center
08:58PM 39.9181 -106.9906 67° East 480 552 39,000  Level Denver Center
08:59PM 39.9722 -106.8200 67° East 487 560 39,000  Level Denver Center
09:00PM 40.0206 -106.6664 68° East 481 554 39,000  Level Denver Center
09:01PM 40.0875 -106.4567 67° East 481 554 39,000  Level Denver Center
09:02PM 40.1383 -106.2944 68° East 482 555 39,000  Level Denver Center
09:03PM 40.1886 -106.1303 68° East 485 558 39,000  Level Denver Center
09:04PM 40.2375 -105.9669 69° East 484 557 39,000  Level Denver Center
09:05PM 40.2878 -105.8019 68° East 487 560 39,000  Level Denver Center
09:06PM 40.3356 -105.6389 69° East 483 556 39,000  Level Denver Center
09:07PM 40.3947 -105.4394 69° East 485 558 39,000  Level Denver Center
09:08PM 40.4442 -105.2744 68° East 486 559 39,000  Level Denver Center
09:09PM 40.4928 -105.1092 69° East 486 559 39,000  Level Denver Center
09:10PM 40.5428 -104.9442 68° East 485 558 39,000  Level Denver Center
09:11PM 40.5919 -104.7739 69° East 494 568 39,000  Level Denver Center
09:13PM 40.6403 -104.6044 69° East 494 568 39,000  Level Denver Center
09:14PM 40.6897 -104.4331 69° East 498 573 39,000  Level Denver Center
09:15PM 40.7383 -104.2683 69° East 478 550 39,000  Level Denver Center
09:16PM 40.7867 -104.1006 69° East 488 562 39,000  Level Denver Center
09:17PM 40.8433 -103.8986 70° East 487 560 39,000  Level Denver Center
09:18PM 40.8900 -103.7319 70° East 485 558 39,000  Level Denver Center
09:19PM 40.9369 -103.5647 70° East 487 560 39,000  Level Denver Center
09:20PM 40.9869 -103.3853 70° East 487 560 39,000  Level Denver Center
09:21PM 41.0308 -103.2236 70° East 488 562 39,000  Level Denver Center
09:22PM 41.0822 -103.0353 70° East 487 560 39,000  Level Denver Center
09:23PM 41.1211 -102.8725 72° East 493 567 39,000  Level Denver Center
09:24PM 41.1561 -102.7067 74° East 489 563 39,000  Level Denver Center
09:25PM 41.1975 -102.5128 74° East 489 563 39,000  Level Denver Center
09:26PM 41.2331 -102.3450 74° East 492 566 39,000  Level Denver Center
09:27PM 41.2742 -102.1500 74° East 490 564 39,000  Level Denver Center
09:28PM 41.3031 -102.0094 75° East 492 566 39,000  Level Denver Center
09:29PM 41.3564 -101.7536 74° East 499 574 39,000  Level Denver Center
09:30PM 41.3922 -101.5833 74° East 499 574 39,000  Level Denver Center
09:31PM 41.4317 -101.3836 75° East 498 573 39,000  Level Denver Center
09:32PM 41.4658 -101.2100 75° East 502 578 39,000  Level Denver Center
09:33PM 41.5044 -101.0103 75° East 497 572 39,000  Level Denver Center
09:34PM 41.5383 -100.8386 75° East 498 573 39,000  Level Denver Center
09:35PM 41.5714 -100.6675 75° East 497 572 39,000  Level Denver Center
09:36PM 41.6083 -100.4675 76° East 496 571 39,000  Level Denver Center
09:37PM 41.6414 -100.2967 75° East 496 571 39,000  Level Denver Center
09:38PM 41.6797 -100.0953 76° East 499 574 39,000  Level Denver Center
09:39PM 41.7083 -99.9211 78° East 501 577 39,000  Level Denver Center
09:40PM 41.6950 -99.7442 96° East 500 575 39,000  Level Denver Center
09:42PM 41.6664 -99.5311 100° East 501 577 39,000  Level Denver Center
09:43PM 41.6406 -99.3472 101° East 503 579 39,000  Level Denver Center
09:44PM 41.6153 -99.1606 100° East 505 581 39,000  Level Denver Center
09:45PM 41.5872 -98.9717 101° East 512 589 39,000  Level Denver Center
09:45PM 41.5661 -98.8206 101° East 514 592 39,000  Level Minneapolis Center
09:46PM 41.5389 -98.6469 102° East 515 593 39,000  Level Minneapolis Center
09:47PM 41.5089 -98.4397 101° East 519 597 39,000  Level Minneapolis Center
09:48PM 41.4808 -98.2481 101° East 522 601 39,000  Level Minneapolis Center
09:50PM 41.4517 -98.0397 101° East 523 602 39,000  Level Minneapolis Center
09:51PM 41.4222 -97.8506 102° East 521 600 39,000  Level Minneapolis Center
09:52PM 41.3939 -97.6631 101° East 519 597 39,000  Level Minneapolis Center
09:53PM 41.3617 -97.4542 102° East 516 594 39,000  Level Minneapolis Center
09:54PM 41.3358 -97.2917 102° East 515 593 39,000  Level Minneapolis Center
09:55PM 41.3061 -97.1069 102° East 512 589 39,000  Level Minneapolis Center
09:56PM 41.2706 -96.8861 102° East 511 588 39,000  Level Minneapolis Center
09:57PM 41.2400 -96.7017 102° East 513 590 39,000  Level Minneapolis Center
09:58PM 41.2100 -96.5183 102° East 513 590 39,000  Level Minneapolis Center
09:59PM 41.1781 -96.3289 103° East 509 586 39,000  Level Minneapolis Center
10:00PM 41.1492 -96.1603 103° East 513 590 39,000  Level Minneapolis Center
10:01PM 41.1150 -95.9756 104° East 512 589 39,000  Level Minneapolis Center
10:02PM 41.0822 -95.7958 104° East 511 588 39,000  Level Minneapolis Center
10:03PM 41.0450 -95.5786 103° East 509 586 39,000  Level Minneapolis Center
10:04PM 41.0133 -95.3981 103° East 508 585 39,000  Level Minneapolis Center
10:05PM 40.9817 -95.2183 103° East 504 580 39,000  Level Minneapolis Center
10:06PM 40.9500 -95.0389 103° East 502 578 39,000  Level Minneapolis Center
10:07PM 40.9178 -94.8597 103° East 501 577 39,000  Level Minneapolis Center
10:08PM 40.8861 -94.6833 103° East 497 572 39,000  Level Minneapolis Center
10:09PM 40.8511 -94.5008 104° East 497 572 39,000  Level Minneapolis Center
10:10PM 40.8197 -94.3256 103° East 496 571 39,000  Level Minneapolis Center
10:11PM 40.7806 -94.1189 104° East 491 565 39,000  Level Minneapolis Center
10:12PM 40.7389 -93.9103 105° East 492 566 39,000  Level Minneapolis Center
10:13PM 40.7019 -93.7025 103° East 491 565 39,000  Level Minneapolis Center
10:14PM 40.6697 -93.5297 104° East 490 564 39,000  Level Minneapolis Center
10:15PM 40.6361 -93.3575 104° East 490 564 39,000  Level Minneapolis Center
10:16PM 40.6153 -93.2539 105° East 490 564 39,000  Level Kansas City Center
10:17PM 40.5742 -93.0492 105° East 486 559 39,000  Level Kansas City Center
10:18PM 40.5414 -92.8878 105° East 486 559 39,000  Level Kansas City Center
10:19PM 40.5061 -92.6969 104° East 482 555 39,000  Level Kansas City Center
10:20PM 40.4906 -92.5264 97° East 486 559 39,000  Level Kansas City Center
10:21PM 40.4750 -92.3517 97° East 484 557 39,000  Level Kansas City Center
10:22PM 40.4611 -92.1772 96° East 484 557 39,000  Level Kansas City Center
10:23PM 40.4450 -92.0036 97° East 482 555 39,000  Level Kansas City Center
10:24PM 40.4294 -91.8300 97° East 482 555 39,000  Level Kansas City Center
10:25PM 40.4108 -91.6228 97° East 482 555 39,000  Level Kansas City Center
10:26PM 40.3953 -91.4492 97° East 483 556 39,000  Level Kansas City Center
10:28PM 40.3778 -91.2714 97° East 482 555 39,000  Level Kansas City Center
10:29PM 40.3614 -91.0978 97° East 482 555 39,000  Level Kansas City Center
10:30PM 40.3450 -90.9244 97° East 481 554 39,000  Level Kansas City Center
10:31PM 40.3264 -90.7514 98° East 482 555 39,000  Level Kansas City Center
10:32PM 40.3094 -90.5794 97° East 480 552 39,000  Level Kansas City Center
10:33PM 40.2914 -90.4072 98° East 481 554 39,000  Level Kansas City Center
10:34PM 40.2744 -90.2353 97° East 480 552 39,000  Level Kansas City Center
10:35PM 40.2533 -90.0283 98° East 482 555 39,000  Level Kansas City Center
10:36PM 40.2342 -89.8536 98° East 487 560 39,000  Level Kansas City Center
10:37PM 40.2156 -89.6789 98° East 490 564 39,000  Level Kansas City Center
10:38PM 40.1947 -89.5058 99° East 488 562 39,000  Level Kansas City Center
10:39PM 40.1753 -89.3317 98° East 488 562 39,000  Level Kansas City Center
10:40PM 40.1567 -89.1550 98° East 490 564 39,000  Level Kansas City Center
10:41PM 40.1372 -88.9806 98° East 489 563 39,000  Level Kansas City Center
10:42PM 40.1128 -88.7717 99° East 487 560 39,000  Level Kansas City Center
10:43PM 40.0928 -88.5964 98° East 489 563 39,000  Level Kansas City Center
10:44PM 40.0750 -88.4203 97° East 489 563 39,000  Level Kansas City Center
10:45PM 40.0542 -88.2439 99° East 492 566 39,000  Level Kansas City Center
10:46PM 40.0397 -88.0669 96° East 490 564 39,000  Level Kansas City Center
10:47PM 40.0544 -87.8664 84° East 495 570 39,000  Level Indianapolis Center
10:48PM 40.0669 -87.6878 85° East 495 570 39,000  Level Indianapolis Center
10:49PM 40.0817 -87.5072 84° East 500 575 39,000  Level Indianapolis Center
10:50PM 40.0947 -87.3286 84° East 497 572 39,000  Level Indianapolis Center
10:51PM 40.1081 -87.1497 84° East 495 570 39,000  Level Indianapolis Center
10:52PM 40.1217 -86.9703 84° East 495 570 39,000  Level Indianapolis Center
10:53PM 40.1336 -86.7928 85° East 495 570 39,000  Level Chicago Center
10:54PM 40.1467 -86.6094 85° East 496 571 39,000  Level Chicago Center
10:55PM 40.1586 -86.4333 85° East 494 568 39,000  Level Chicago Center
10:57PM 40.1811 -86.0694 85° East 496 571 39,000  Level Indianapolis Center
10:58PM 40.1928 -85.8886 85° East 497 572 39,000  Level Indianapolis Center
10:59PM 40.2064 -85.6719 85° East 496 571 39,000  Level Indianapolis Center
11:00PM 40.2164 -85.4914 67° East 497 572 39,000  Level Indianapolis Center
11:01PM 40.2278 -85.3119 85° East 496 571 39,000  Level Indianapolis Center
11:02PM 40.2369 -85.1333 86° East 494 568 39,000  Level Indianapolis Center
11:03PM 40.2461 -84.9553 86° East 492 566 39,000  Level Indianapolis Center
11:04PM 40.2556 -84.7728 86° East 495 570 39,000  Level Indianapolis Center
11:05PM 40.2650 -84.5933 86° East 492 566 39,000  Level Indianapolis Center
11:06PM 40.2739 -84.4133 86° East 491 565 39,000  Level Indianapolis Center
11:07PM 40.2817 -84.2328 87° East 490 564 39,000  Level Indianapolis Center
11:08PM 40.2922 -84.0525 86° East 492 566 39,000  Level Indianapolis Center
11:09PM 40.3378 -83.8803 71° East 492 566 39,000  Level Indianapolis Center
11:10PM 40.3867 -83.7094 69° East 492 566 39,000  Level Indianapolis Center
11:11PM 40.4344 -83.5383 70° East 492 566 39,000  Level Indianapolis Center
11:12PM 40.4822 -83.3653 70° East 495 570 39,000  Level Indianapolis Center
11:13PM 40.5292 -83.1944 70° East 493 567 39,000  Level Indianapolis Center
11:14PM 40.5775 -83.0197 70° East 494 568 39,000  Level Indianapolis Center
11:15PM 40.6236 -82.8500 70° East 491 565 39,000  Level Indianapolis Center
11:17PM 40.6697 -82.6781 70° East 493 567 39,000  Level Indianapolis Center
11:18PM 40.7164 -82.5067 70° East 494 568 39,000  Level Indianapolis Center
11:19PM 40.7617 -82.3358 71° East 491 565 39,000  Level Indianapolis Center
11:20PM 40.8069 -82.1681 70° East 487 560 39,000  Level Indianapolis Center
11:21PM 40.8522 -81.9969 71° East 488 562 39,000  Level Indianapolis Center
11:22PM 40.9033 -81.7992 71° East 488 562 39,000  Level Indianapolis Center
11:23PM 40.9481 -81.6292 71° East 489 563 39,000  Level Indianapolis Center
11:24PM 40.9931 -81.4592 71° East 490 564 39,000  Level Indianapolis Center
11:25PM 41.0386 -81.2850 71° East 486 559 39,000  Level Cleveland Center
11:26PM 41.0833 -81.1119 71° East 486 559 39,000  Level Cleveland Center
11:27PM 41.1297 -80.9442 70° East 486 559 39,000  Level Cleveland Center
11:28PM 41.1697 -80.7708 73° East 486 559 39,000  Level Cleveland Center
11:29PM 41.2158 -80.5969 71° East 486 559 39,000  Level Cleveland Center
11:30PM 41.2575 -80.4258 72° East 486 559 39,000  Level Cleveland Center
11:31PM 41.3028 -80.2542 71° East 486 559 39,000  Level Cleveland Center
11:32PM 41.3439 -80.0825 72° East 486 559 39,000  Level Cleveland Center
11:33PM 41.3869 -79.9106 71° East 486 559 39,000  Level Cleveland Center
11:34PM 41.4294 -79.7331 72° East 486 559 39,000  Level Cleveland Center
11:35PM 41.4739 -79.5606 71° East 486 559 39,000  Level Cleveland Center
11:36PM 41.5139 -79.3825 73° East 491 565 39,000  Level Cleveland Center
11:37PM 41.5578 -79.2039 72° East 491 565 39,000  Level Cleveland Center
11:38PM 41.5847 -79.0258 79° East 491 565 39,000  Level Cleveland Center
11:39PM 41.5944 -78.8394 86° East 491 565 39,000  Level Cleveland Center
11:40PM 41.6083 -78.6558 84° East 496 571 39,000  Level Cleveland Center
11:41PM 41.6153 -78.4694 87° East 496 571 39,000  Level Cleveland Center
11:42PM 41.6264 -78.2858 85° East 496 571 39,000  Level Cleveland Center
11:43PM 41.6350 -78.0994 86° East 501 577 39,000  Level Cleveland Center
11:44PM 41.6475 -77.8556 86° East 499 574 39,000  Level New York Center
11:45PM 41.6564 -77.6703 86° East 499 574 39,000  Level New York Center
11:46PM 41.6650 -77.4853 86° East 499 574 39,000  Level New York Center
11:47PM 41.6722 -77.2775 87° East 499 574 39,000  Level New York Center
11:48PM 41.6614 -77.0933 94° East 499 574 39,000  Level New York Center
11:49PM 41.6122 -76.9192 111° Southeast 490 564 39,000  Level New York Center
11:50PM 41.5672 -76.7406 109° East 496 571 39,000  Level New York Center
11:51PM 41.5247 -76.5869 110° East 496 571 39,000  Level New York Center
11:52PM 41.4808 -76.4172 109° East 496 571 39,000 -240 Level New York Center
11:53PM 41.4214 -76.2183 112° Southeast 502 578 38,600 -1,560 Descending New York Center
11:54PM 41.3736 -76.0347 109° East 521 600 36,000 -3,060 Descending New York Center
11:55PM 41.3225 -75.8678 112° Southeast 508 585 32,500 -3,480 Descending New York Center
11:56PM 41.2717 -75.6928 111° Southeast 502 578 29,100 -3,000 Descending New York Center
11:57PM 41.2200 -75.5292 113° Southeast 502 578 26,600 -2,760 Descending New York Center
11:58PM 41.1658 -75.3708 114° Southeast 476 548 23,700 -1,800 Descending New York Center
11:59PM 41.1153 -75.2189 114° Southeast 458 527 23,000 -420 Descending New York Center
12:00AM 41.0667 -75.0669 113° Southeast 453 521 22,900 -60 Descending New York Center
12:01AM 41.0158 -74.9181 114° Southeast 453 521 22,900  Level New York Center
12:02AM 40.9858 -74.7594 104° East 448 516 22,900 -480 Level New York Center
12:03AM 40.9683 -74.5964 98° East 443 510 22,000 -1,440 Descending New York Center
12:04AM 40.9528 -74.4361 97° East 443 510 20,100 -1,440 Descending New York Center
12:05AM 40.9342 -74.2869 99° East 430 495 19,200 -600 Descending New York Center
12:06AM 40.9089 -74.1619 105° East 380 437 19,000 -420 Descending New York Center
12:07AM 40.8597 -74.0525 121° Southeast 346 398 18,400 -1,140 Descending New York Center
12:08AM 40.8164 -73.9600 122° Southeast 334 384 16,800 -1,740 Descending New York Center
12:09AM 40.7633 -73.8453 121° Southeast 334 384 14,900 -1,740 Descending New York Center
12:10AM 40.7197 -73.7556 123° Southeast 334 384 13,300 -1,620 Descending New York Center
12:11AM 40.6397 -73.7083 156° South 285 328 11,800 -2,160 Descending New York Center
12:12AM 40.5711 -73.7053 178° South 285 328 9,100 -2,100 Descending New York Center
12:13AM 40.4922 -73.6883 171° South 285 328 7,600 -1,800 Descending New York Center
12:14AM 40.4308 -73.7347 210° Southwest 252 290 5,500 -2,220 Descending New York Center
12:15AM 40.4139 -73.8186 255° West 211 243 3,300 -1,320 Descending New York Center
12:16AM 40.4225 -73.8925 279° West 206 237 3,000 -180 Descending New York Center
12:17AM 40.4539 -73.9622 301° West 211 243 3,000  Level New York Center
12:18AM 40.5017 -73.9644 358° North 182 209 3,000 -120 Level New York Center
12:19AM 40.5333 -73.9667 357° North 197 227 2,900 -540 Descending New York TRACON
12:19AM 40.5667 -73.9333 37° Northeast 203 234 2,300 -840 Descending New York TRACON
12:20AM 40.6167 -73.9000 27° Northeast 198 228 1,500 -840 Descending New York TRACON
12:21AM 40.6667 -73.8500 37° Northeast 164 189 600 -600 Descending New York TRACON
12:22AM 40.6667 -73.8000 90° East 158 182 400 -300 Descending New York TRACON
12:24AM 40.6398 -73.7789 169° South  Level Estimated
12:31AM 40.6398 -73.7789 346° North  Level Estimated
12:32AM 40.6398 -73.7789 346° North  Level Estimated
12:33AM 40.6398 -73.7789 346° North  Level Estimated